Terminal Aerodrome Forecast
Issued by NWS Sioux Falls, SD

Home | Current Version | Previous Version | Text Only | Print | Product List | Glossary On
Versions: 1 2 3 4 5 6 7 8 9 10 11 12 13 14 15 16 17 18 19 20 21 22 23 24 25 26 27 28 29 30 31 32 33 34 35 36 37 38
000
FTUS43 KFSD 042329
TAFSUX
TAF
KSUX 042329Z 0500/0524 32010KT P6SM SKC
     FM050100 VRB03KT P6SM SKC
     FM050800 13004KT P6SM SCT120
     FM051300 13007KT P6SM BKN120
     FM051600 15010KT P6SM OVC080
     FM051900 25010KT P6SM OVC030=

USA.gov is the U.S. government's official web portal to all federal, state and local government web resources and services.